Argo — SMOH — position and weather

sailwx.info

Track history (hours):
 
Tides and Currents Weather Stations Pressure Air Temp Water Temp Dewpoint Dewpoint Depression Visibility Wind Speed Wind Dir Waves Ship Positions

Argo

Last reported at 2017-Jun-16 09:19 UTC. Time now 2017-Jul-26 20:43 UTC.
Position N 56°09' E 015°35'.
Warning: this ship's position is 40 days out of date.

Length 26 m.

Type: Military. MMSI: 265591600.

Date/timePositionNaut miles runAvg speedWind from/ knotsBaromVisibWave heightAir tempDewpointWater temp
2017-Jun-16 09:19N 56°09' E 015°35'0 0.9
2017-Jun-16 09:00N 56°09' E 015°36'713.5
2017-Jun-16 08:30N 56°08' E 015°47'5 9.2
2017-Jun-16 08:00N 56°03' E 015°51'1019.6
2017-Jun-16 07:31N 56°11' E 016°03'1020.3
2017-Jun-16 07:01N 56°20' E 016°09'1020.2
2017-Jun-16 06:31N 56°29' E 016°16'  
2017-Jun-13 17:54N 58°29' E 016°57'73 6.8
2017-Jun-13 07:05N 57°16' E 016°39'215.8
2017-Jun-13 06:58N 57°16' E 016°36'510.4
2017-Jun-13 06:30N 57°16' E 016°27'0 0.0
2017-Jun-13 06:00N 57°16' E 016°27'0 0.0
2017-Jun-13 05:27N 57°16' E 016°27'0 0.0
2017-Jun-13 05:00N 57°16' E 016°27'0 0.0
2017-Jun-13 04:30N 57°16' E 016°27'0 0.0
2017-Jun-13 04:00N 57°16' E 016°27'0 0.0
2017-Jun-13 03:30N 57°16' E 016°27'0 0.0
2017-Jun-13 03:00N 57°16' E 016°27'0 0.0
2017-Jun-13 02:30N 57°16' E 016°27'0 0.0
2017-Jun-13 02:00N 57°16' E 016°27'0 0.0
2017-Jun-13 01:30N 57°16' E 016°27'0 0.0
2017-Jun-13 01:00N 57°16' E 016°27'0 0.0
2017-Jun-13 00:30N 57°16' E 016°27'0 0.0
2017-Jun-13 00:00N 57°16' E 016°27'0 0.0
2017-Jun-12 23:30N 57°16' E 016°27'0 0.0
2017-Jun-12 23:00N 57°16' E 016°27'0 0.0
2017-Jun-12 22:30N 57°16' E 016°27'0 0.0
2017-Jun-12 22:00N 57°16' E 016°27'0 0.0
2017-Jun-12 21:30N 57°16' E 016°27'0 0.0
2017-Jun-12 21:00N 57°16' E 016°27'0 0.0
2017-Jun-12 20:30N 57°16' E 016°27'0 0.0
2017-Jun-12 20:00N 57°16' E 016°27'0 0.0
2017-Jun-12 19:30N 57°16' E 016°27'0 0.0
2017-Jun-12 19:00N 57°16' E 016°27'0 0.0
2017-Jun-12 18:30N 57°16' E 016°27'0 0.0
2017-Jun-12 18:00N 57°16' E 016°27'0 0.0
2017-Jun-12 17:30N 57°16' E 016°27'0 0.0
2017-Jun-12 17:00N 57°16' E 016°27'0 0.0
2017-Jun-12 16:30N 57°16' E 016°27'4 7.9
2017-Jun-12 16:00N 57°14' E 016°33'7214.7
2017-Jun-12 11:06N 56°08' E 015°36'111.7
2017-Jun-12 11:00N 56°09' E 015°37'  
Track history (hours):
 
Tides and Currents Weather Stations Pressure Air Temp Water Temp Dewpoint Dewpoint Depression Visibility Wind Speed Wind Dir Waves Ship Positions

Argo

Last reported at 2017-Jun-16 09:19 UTC. Time now 2017-Jul-26 20:43 UTC.
Position N 56°09' E 015°35'.
Warning: this ship's position is 40 days out of date.

Length 26 m.

Type: Military. MMSI: 265591600.

Date/timePositionNaut miles runAvg speedWind from/ knotsBaromVisibWave heightAir tempDewpointWater temp
2017-Jun-16 09:19N 56°09' E 015°35'0 0.9
2017-Jun-16 09:00N 56°09' E 015°36'713.5
2017-Jun-16 08:30N 56°08' E 015°47'5 9.2
2017-Jun-16 08:00N 56°03' E 015°51'1019.6
2017-Jun-16 07:31N 56°11' E 016°03'1020.3
2017-Jun-16 07:01N 56°20' E 016°09'1020.2
2017-Jun-16 06:31N 56°29' E 016°16'  
2017-Jun-13 17:54N 58°29' E 016°57'73 6.8
2017-Jun-13 07:05N 57°16' E 016°39'215.8
2017-Jun-13 06:58N 57°16' E 016°36'510.4
2017-Jun-13 06:30N 57°16' E 016°27'0 0.0
2017-Jun-13 06:00N 57°16' E 016°27'0 0.0
2017-Jun-13 05:27N 57°16' E 016°27'0 0.0
2017-Jun-13 05:00N 57°16' E 016°27'0 0.0
2017-Jun-13 04:30N 57°16' E 016°27'0 0.0
2017-Jun-13 04:00N 57°16' E 016°27'0 0.0
2017-Jun-13 03:30N 57°16' E 016°27'0 0.0
2017-Jun-13 03:00N 57°16' E 016°27'0 0.0
2017-Jun-13 02:30N 57°16' E 016°27'0 0.0
2017-Jun-13 02:00N 57°16' E 016°27'0 0.0
2017-Jun-13 01:30N 57°16' E 016°27'0 0.0
2017-Jun-13 01:00N 57°16' E 016°27'0 0.0
2017-Jun-13 00:30N 57°16' E 016°27'0 0.0
2017-Jun-13 00:00N 57°16' E 016°27'0 0.0
2017-Jun-12 23:30N 57°16' E 016°27'0 0.0
2017-Jun-12 23:00N 57°16' E 016°27'0 0.0
2017-Jun-12 22:30N 57°16' E 016°27'0 0.0
2017-Jun-12 22:00N 57°16' E 016°27'0 0.0
2017-Jun-12 21:30N 57°16' E 016°27'0 0.0
2017-Jun-12 21:00N 57°16' E 016°27'0 0.0
2017-Jun-12 20:30N 57°16' E 016°27'0 0.0
2017-Jun-12 20:00N 57°16' E 016°27'0 0.0
2017-Jun-12 19:30N 57°16' E 016°27'0 0.0
2017-Jun-12 19:00N 57°16' E 016°27'0 0.0
2017-Jun-12 18:30N 57°16' E 016°27'0 0.0
2017-Jun-12 18:00N 57°16' E 016°27'0 0.0
2017-Jun-12 17:30N 57°16' E 016°27'0 0.0
2017-Jun-12 17:00N 57°16' E 016°27'0 0.0
2017-Jun-12 16:30N 57°16' E 016°27'4 7.9
2017-Jun-12 16:00N 57°14' E 016°33'7214.7
2017-Jun-12 11:06N 56°08' E 015°36'111.7
2017-Jun-12 11:00N 56°09' E 015°37'  

Dump ship's entire track history